sensor_id;sensor_type;location;lat;lon;timestamp;pressure;altitude;pressure_sealevel;temperature;humidity
54248;BME280;40161;39.768;2.722;2023-07-20T00:02:13;100909.22;;;28.51;76.10
54248;BME280;40161;39.768;2.722;2023-07-20T00:04:39;100878.28;;;28.42;75.63
54248;BME280;40161;39.768;2.722;2023-07-20T00:07:05;100908.06;;;28.57;75.47
54248;BME280;40161;39.768;2.722;2023-07-20T00:09:30;100914.97;;;28.56;75.63
54248;BME280;40161;39.768;2.722;2023-07-20T00:11:56;100918.28;;;28.40;76.59
54248;BME280;40161;39.768;2.722;2023-07-20T00:14:22;100902.88;;;28.11;77.84
54248;BME280;40161;39.768;2.722;2023-07-20T00:16:50;100892.63;;;27.99;77.25
54248;BME280;40161;39.768;2.722;2023-07-20T00:19:24;100921.81;;;28.11;77.02
54248;BME280;40161;39.768;2.722;2023-07-20T00:21:50;100919.94;;;28.08;77.51
54248;BME280;40161;39.768;2.722;2023-07-20T00:24:16;100908.56;;;28.02;78.20
54248;BME280;40161;39.768;2.722;2023-07-20T00:26:41;100926.56;;;28.05;78.58
54248;BME280;40161;39.768;2.722;2023-07-20T00:29:06;100924.91;;;27.98;79.57
54248;BME280;40161;39.768;2.722;2023-07-20T00:31:32;100903.69;;;27.88;80.19
54248;BME280;40161;39.768;2.722;2023-07-20T00:34:00;100922.31;;;28.09;77.61
54248;BME280;40161;39.768;2.722;2023-07-20T00:36:25;100918.00;;;27.99;78.13
54248;BME280;40161;39.768;2.722;2023-07-20T00:38:51;100933.97;;;28.02;77.88
54248;BME280;40161;39.768;2.722;2023-07-20T00:41:16;100916.84;;;28.06;77.27
54248;BME280;40161;39.768;2.722;2023-07-20T00:43:42;100900.69;;;27.91;77.99
54248;BME280;40161;39.768;2.722;2023-07-20T00:46:09;100926.25;;;27.88;78.88
54248;BME280;40161;39.768;2.722;2023-07-20T00:48:36;100922.53;;;27.82;78.65
54248;BME280;40161;39.768;2.722;2023-07-20T00:51:02;100924.47;;;27.90;78.35
54248;BME280;40161;39.768;2.722;2023-07-20T00:53:28;100915.44;;;27.86;79.40
54248;BME280;40161;39.768;2.722;2023-07-20T00:55:54;100914.34;;;27.84;80.00
54248;BME280;40161;39.768;2.722;2023-07-20T00:58:19;100918.56;;;27.88;80.56
54248;BME280;40161;39.768;2.722;2023-07-20T01:00:46;100897.16;;;27.82;80.30
54248;BME280;40161;39.768;2.722;2023-07-20T01:03:12;100895.44;;;27.99;80.24
54248;BME280;40161;39.768;2.722;2023-07-20T01:05:44;100895.25;;;28.03;79.62
54248;BME280;40161;39.768;2.722;2023-07-20T01:08:29;100895.38;;;28.08;77.78
54248;BME280;40161;39.768;2.722;2023-07-20T01:11:00;100893.00;;;28.07;77.73
54248;BME280;40161;39.768;2.722;2023-07-20T01:13:26;100886.00;;;28.02;76.90
54248;BME280;40161;39.768;2.722;2023-07-20T01:16:02;100876.59;;;28.05;76.48
54248;BME280;40161;39.768;2.722;2023-07-20T01:18:28;100868.31;;;28.02;76.91
54248;BME280;40161;39.768;2.722;2023-07-20T01:20:59;100859.44;;;27.94;76.10
54248;BME280;40161;39.768;2.722;2023-07-20T01:24:05;100866.28;;;28.17;74.76
54248;BME280;40161;39.768;2.722;2023-07-20T01:32:23;100817.06;;;28.03;74.05
54248;BME280;40161;39.768;2.722;2023-07-20T01:34:52;100838.66;;;28.06;74.69
54248;BME280;40161;39.768;2.722;2023-07-20T01:37:20;100840.13;;;28.02;74.68
54248;BME280;40161;39.768;2.722;2023-07-20T01:39:51;100823.06;;;27.96;75.50
54248;BME280;40161;39.768;2.722;2023-07-20T01:42:21;100821.41;;;28.04;74.17
54248;BME280;40161;39.768;2.722;2023-07-20T01:44:46;100816.06;;;27.91;74.97
54248;BME280;40161;39.768;2.722;2023-07-20T01:47:12;100826.88;;;27.54;77.20
54248;BME280;40161;39.768;2.722;2023-07-20T01:49:38;100822.78;;;27.55;77.63
54248;BME280;40161;39.768;2.722;2023-07-20T01:52:04;100838.25;;;27.60;77.84
54248;BME280;40161;39.768;2.722;2023-07-20T01:54:29;100829.94;;;27.41;79.05
54248;BME280;40161;39.768;2.722;2023-07-20T01:56:55;100834.00;;;27.40;79.66
54248;BME280;40161;39.768;2.722;2023-07-20T01:59:20;100837.72;;;27.47;79.81
54248;BME280;40161;39.768;2.722;2023-07-20T02:01:46;100803.44;;;27.24;81.11
54248;BME280;40161;39.768;2.722;2023-07-20T02:04:11;100827.84;;;27.27;82.38
54248;BME280;40161;39.768;2.722;2023-07-20T02:06:37;100847.97;;;27.35;82.18
54248;BME280;40161;39.768;2.722;2023-07-20T02:09:03;100815.97;;;27.23;82.72
54248;BME280;40161;39.768;2.722;2023-07-20T02:11:29;100841.97;;;27.42;82.25
54248;BME280;40161;39.768;2.722;2023-07-20T02:13:54;100835.50;;;27.51;81.39
54248;BME280;40161;39.768;2.722;2023-07-20T02:16:20;100830.84;;;27.62;80.33
54248;BME280;40161;39.768;2.722;2023-07-20T02:18:45;100824.16;;;27.60;80.27
54248;BME280;40161;39.768;2.722;2023-07-20T02:21:11;100816.00;;;27.62;80.00
54248;BME280;40161;39.768;2.722;2023-07-20T02:23:36;100809.28;;;27.59;80.21
54248;BME280;40161;39.768;2.722;2023-07-20T02:26:02;100803.34;;;27.57;79.35
54248;BME280;40161;39.768;2.722;2023-07-20T02:28:27;100812.78;;;27.69;79.12
54248;BME280;40161;39.768;2.722;2023-07-20T02:30:54;100804.72;;;27.62;78.95
54248;BME280;40161;39.768;2.722;2023-07-20T02:33:19;100797.63;;;27.66;79.37
54248;BME280;40161;39.768;2.722;2023-07-20T02:35:46;100792.47;;;27.50;78.79
54248;BME280;40161;39.768;2.722;2023-07-20T02:38:12;100802.41;;;27.60;79.48
54248;BME280;40161;39.768;2.722;2023-07-20T02:40:37;100781.06;;;27.44;78.79
54248;BME280;40161;39.768;2.722;2023-07-20T02:43:02;100803.47;;;27.39;80.40
54248;BME280;40161;39.768;2.722;2023-07-20T02:45:28;100799.31;;;27.01;82.38
54248;BME280;40161;39.768;2.722;2023-07-20T02:47:54;100799.44;;;26.83;84.16
54248;BME280;40161;39.768;2.722;2023-07-20T02:50:19;100819.88;;;26.92;84.51
54248;BME280;40161;39.768;2.722;2023-07-20T02:52:45;100829.47;;;27.10;83.23
54248;BME280;40161;39.768;2.722;2023-07-20T02:55:11;100827.88;;;27.18;82.77
54248;BME280;40161;39.768;2.722;2023-07-20T02:57:36;100816.66;;;27.09;83.92
54248;BME280;40161;39.768;2.722;2023-07-20T03:00:03;100819.16;;;27.16;82.58
54248;BME280;40161;39.768;2.722;2023-07-20T03:02:30;100823.22;;;27.15;82.46
54248;BME280;40161;39.768;2.722;2023-07-20T03:04:55;100826.97;;;27.12;84.26
54248;BME280;40161;39.768;2.722;2023-07-20T03:07:22;100825.13;;;27.09;83.59
54248;BME280;40161;39.768;2.722;2023-07-20T03:09:48;100825.41;;;27.11;84.12
54248;BME280;40161;39.768;2.722;2023-07-20T03:12:13;100831.38;;;27.04;83.81
54248;BME280;40161;39.768;2.722;2023-07-20T03:14:39;100826.84;;;27.06;83.98
54248;BME280;40161;39.768;2.722;2023-07-20T03:17:05;100799.03;;;26.99;82.87
54248;BME280;40161;39.768;2.722;2023-07-20T03:19:30;100822.38;;;27.24;81.98
54248;BME280;40161;39.768;2.722;2023-07-20T03:21:56;100826.75;;;27.25;81.95
54248;BME280;40161;39.768;2.722;2023-07-20T03:24:22;100809.84;;;27.25;81.88
54248;BME280;40161;39.768;2.722;2023-07-20T03:26:48;100790.22;;;27.15;81.70
54248;BME280;40161;39.768;2.722;2023-07-20T03:29:14;100799.25;;;27.19;81.87
54248;BME280;40161;39.768;2.722;2023-07-20T03:31:41;100808.00;;;27.21;81.13
54248;BME280;40161;39.768;2.722;2023-07-20T03:34:06;100794.09;;;27.18;81.30
54248;BME280;40161;39.768;2.722;2023-07-20T03:36:34;100791.28;;;27.18;81.33
54248;BME280;40161;39.768;2.722;2023-07-20T03:38:59;100784.13;;;27.08;80.92
54248;BME280;40161;39.768;2.722;2023-07-20T03:41:25;100762.53;;;26.57;82.92
54248;BME280;40161;39.768;2.722;2023-07-20T03:43:50;100786.28;;;26.89;82.38
54248;BME280;40161;39.768;2.722;2023-07-20T03:46:16;100781.41;;;26.89;82.81
54248;BME280;40161;39.768;2.722;2023-07-20T03:48:42;100780.94;;;26.91;83.17
54248;BME280;40161;39.768;2.722;2023-07-20T03:51:07;100788.25;;;26.97;81.98
54248;BME280;40161;39.768;2.722;2023-07-20T03:53:33;100793.94;;;26.88;84.43
54248;BME280;40161;39.768;2.722;2023-07-20T03:55:58;100793.34;;;26.84;84.58
54248;BME280;40161;39.768;2.722;2023-07-20T03:58:24;100788.78;;;26.87;84.97
54248;BME280;40161;39.768;2.722;2023-07-20T04:00:51;100794.00;;;26.79;85.73
54248;BME280;40161;39.768;2.722;2023-07-20T04:03:20;100806.81;;;26.80;86.44
54248;BME280;40161;39.768;2.722;2023-07-20T04:05:48;100811.09;;;26.99;84.22
54248;BME280;40161;39.768;2.722;2023-07-20T04:08:13;100808.59;;;27.02;84.74
54248;BME280;40161;39.768;2.722;2023-07-20T04:10:39;100817.13;;;27.07;83.81
54248;BME280;40161;39.768;2.722;2023-07-20T04:13:05;100812.03;;;26.96;83.47
54248;BME280;40161;39.768;2.722;2023-07-20T04:15:31;100828.53;;;26.80;85.64
54248;BME280;40161;39.768;2.722;2023-07-20T04:17:56;100816.19;;;26.77;85.08
54248;BME280;40161;39.768;2.722;2023-07-20T04:20:23;100825.28;;;26.81;85.39
54248;BME280;40161;39.768;2.722;2023-07-20T04:22:49;100831.19;;;26.83;85.13
54248;BME280;40161;39.768;2.722;2023-07-20T04:25:15;100828.72;;;26.76;85.09
54248;BME280;40161;39.768;2.722;2023-07-20T04:27:41;100821.19;;;26.82;84.26
54248;BME280;40161;39.768;2.722;2023-07-20T04:30:08;100820.69;;;26.84;84.20
54248;BME280;40161;39.768;2.722;2023-07-20T04:32:33;100825.09;;;26.85;83.72
54248;BME280;40161;39.768;2.722;2023-07-20T04:34:59;100826.63;;;26.86;82.96
54248;BME280;40161;39.768;2.722;2023-07-20T04:37:24;100828.97;;;26.87;83.22
54248;BME280;40161;39.768;2.722;2023-07-20T04:39:50;100823.56;;;26.74;84.37
54248;BME280;40161;39.768;2.722;2023-07-20T04:42:15;100807.56;;;26.57;84.94
54248;BME280;40161;39.768;2.722;2023-07-20T04:44:41;100827.44;;;26.77;84.12
54248;BME280;40161;39.768;2.722;2023-07-20T04:47:07;100823.50;;;26.84;83.25
54248;BME280;40161;39.768;2.722;2023-07-20T04:49:34;100816.66;;;26.85;83.87
54248;BME280;40161;39.768;2.722;2023-07-20T04:51:59;100814.28;;;26.83;83.55
54248;BME280;40161;39.768;2.722;2023-07-20T04:54:25;100815.88;;;26.84;83.23
54248;BME280;40161;39.768;2.722;2023-07-20T04:56:53;100823.56;;;26.74;83.51
54248;BME280;40161;39.768;2.722;2023-07-20T04:59:20;100822.81;;;26.74;83.48
54248;BME280;40161;39.768;2.722;2023-07-20T05:01:46;100815.25;;;26.80;83.04
54248;BME280;40161;39.768;2.722;2023-07-20T05:04:11;100790.69;;;26.38;85.21
54248;BME280;40161;39.768;2.722;2023-07-20T05:06:37;100822.09;;;26.55;85.24
54248;BME280;40161;39.768;2.722;2023-07-20T05:09:04;100818.00;;;26.56;86.34
54248;BME280;40161;39.768;2.722;2023-07-20T05:11:30;100825.38;;;26.54;86.70
54248;BME280;40161;39.768;2.722;2023-07-20T05:13:56;100824.91;;;26.55;87.21
54248;BME280;40161;39.768;2.722;2023-07-20T05:16:21;100807.56;;;26.57;87.35
54248;BME280;40161;39.768;2.722;2023-07-20T05:18:47;100818.72;;;26.75;86.34
54248;BME280;40161;39.768;2.722;2023-07-20T05:21:13;100820.41;;;26.82;85.38
54248;BME280;40161;39.768;2.722;2023-07-20T05:23:39;100824.03;;;26.73;85.94
54248;BME280;40161;39.768;2.722;2023-07-20T05:26:04;100810.56;;;26.77;85.94
54248;BME280;40161;39.768;2.722;2023-07-20T05:28:30;100812.88;;;26.88;84.45
54248;BME280;40161;39.768;2.722;2023-07-20T05:30:55;100808.47;;;26.87;85.39
54248;BME280;40161;39.768;2.722;2023-07-20T05:33:21;100814.28;;;26.83;83.65
54248;BME280;40161;39.768;2.722;2023-07-20T05:35:47;100823.41;;;26.78;85.05
54248;BME280;40161;39.768;2.722;2023-07-20T05:38:13;100818.56;;;26.69;83.93
54248;BME280;40161;39.768;2.722;2023-07-20T05:40:44;100840.53;;;26.89;83.71
54248;BME280;40161;39.768;2.722;2023-07-20T05:43:11;100844.81;;;26.85;83.97
54248;BME280;40161;39.768;2.722;2023-07-20T05:45:36;100845.41;;;26.89;85.06
54248;BME280;40161;39.768;2.722;2023-07-20T05:48:02;100851.97;;;26.86;85.57
54248;BME280;40161;39.768;2.722;2023-07-20T05:50:28;100852.41;;;26.93;84.98
54248;BME280;40161;39.768;2.722;2023-07-20T05:52:54;100876.28;;;27.07;84.42
54248;BME280;40161;39.768;2.722;2023-07-20T05:55:20;100877.38;;;27.10;83.83
54248;BME280;40161;39.768;2.722;2023-07-20T05:57:46;100876.09;;;27.11;83.55
54248;BME280;40161;39.768;2.722;2023-07-20T06:00:13;100881.13;;;27.16;83.64
54248;BME280;40161;39.768;2.722;2023-07-20T06:02:39;100887.66;;;27.22;82.83
54248;BME280;40161;39.768;2.722;2023-07-20T06:05:08;100878.72;;;27.24;83.17
54248;BME280;40161;39.768;2.722;2023-07-20T06:07:37;100872.72;;;27.31;82.84
54248;BME280;40161;39.768;2.722;2023-07-20T06:10:03;100861.34;;;27.25;81.87
54248;BME280;40161;39.768;2.722;2023-07-20T06:12:29;100875.59;;;27.45;81.07
54248;BME280;40161;39.768;2.722;2023-07-20T06:14:54;100868.72;;;27.47;81.62
54248;BME280;40161;39.768;2.722;2023-07-20T06:17:20;100878.69;;;27.57;81.71
54248;BME280;40161;39.768;2.722;2023-07-20T06:19:46;100869.84;;;27.64;80.42
54248;BME280;40161;39.768;2.722;2023-07-20T06:22:11;100843.47;;;27.52;80.89
54248;BME280;40161;39.768;2.722;2023-07-20T06:24:38;100869.28;;;27.75;81.28
54248;BME280;40161;39.768;2.722;2023-07-20T06:27:04;100867.44;;;27.72;80.98
54248;BME280;40161;39.768;2.722;2023-07-20T06:29:31;100872.34;;;27.86;81.15
54248;BME280;40161;39.768;2.722;2023-07-20T06:31:56;100869.94;;;27.93;80.49
54248;BME280;40161;39.768;2.722;2023-07-20T06:34:22;100880.38;;;28.02;81.31
54248;BME280;40161;39.768;2.722;2023-07-20T06:36:47;100877.56;;;28.02;80.40
54248;BME280;40161;39.768;2.722;2023-07-20T06:39:13;100877.63;;;28.08;80.25
54248;BME280;40161;39.768;2.722;2023-07-20T06:41:39;100862.38;;;28.14;80.28
54248;BME280;40161;39.768;2.722;2023-07-20T06:44:05;100867.16;;;28.23;80.33
54248;BME280;40161;39.768;2.722;2023-07-20T06:46:30;100845.25;;;28.18;79.85
54248;BME280;40161;39.768;2.722;2023-07-20T06:48:56;100857.47;;;28.39;80.79
54248;BME280;40161;39.768;2.722;2023-07-20T06:51:22;100846.19;;;28.39;80.33
54248;BME280;40161;39.768;2.722;2023-07-20T06:53:47;100842.97;;;28.46;79.63
54248;BME280;40161;39.768;2.722;2023-07-20T06:56:13;100833.03;;;28.51;78.58
54248;BME280;40161;39.768;2.722;2023-07-20T06:58:39;100826.09;;;28.52;78.81
54248;BME280;40161;39.768;2.722;2023-07-20T07:01:08;100824.66;;;28.56;78.93
54248;BME280;40161;39.768;2.722;2023-07-20T07:03:34;100822.69;;;28.62;78.63
54248;BME280;40161;39.768;2.722;2023-07-20T07:06:00;100819.66;;;28.66;78.34
54248;BME280;40161;39.768;2.722;2023-07-20T07:08:26;100838.53;;;28.75;78.15
54248;BME280;40161;39.768;2.722;2023-07-20T07:10:52;100849.13;;;28.80;77.93
54248;BME280;40161;39.768;2.722;2023-07-20T07:13:17;100856.03;;;28.79;77.24
54248;BME280;40161;39.768;2.722;2023-07-20T07:15:43;100876.78;;;28.91;77.49
54248;BME280;40161;39.768;2.722;2023-07-20T07:18:08;100880.84;;;28.90;77.21
54248;BME280;40161;39.768;2.722;2023-07-20T07:20:34;100888.44;;;28.98;77.49
54248;BME280;40161;39.768;2.722;2023-07-20T07:22:59;100890.31;;;29.01;77.09
54248;BME280;40161;39.768;2.722;2023-07-20T07:25:26;100899.56;;;29.02;77.55
54248;BME280;40161;39.768;2.722;2023-07-20T07:27:53;100922.03;;;29.11;77.04
54248;BME280;40161;39.768;2.722;2023-07-20T07:30:19;100924.06;;;29.25;81.32
54248;BME280;40161;39.768;2.722;2023-07-20T07:32:45;100906.44;;;29.16;82.86
54248;BME280;40161;39.768;2.722;2023-07-20T07:35:11;100920.22;;;29.28;83.13
54248;BME280;40161;39.768;2.722;2023-07-20T07:37:37;100934.19;;;29.32;82.51
54248;BME280;40161;39.768;2.722;2023-07-20T07:40:03;100947.91;;;29.39;81.76
54248;BME280;40161;39.768;2.722;2023-07-20T07:42:31;100921.66;;;29.18;81.54
54248;BME280;40161;39.768;2.722;2023-07-20T07:44:56;100962.22;;;29.36;81.28
54248;BME280;40161;39.768;2.722;2023-07-20T07:47:22;100948.88;;;29.36;81.02
54248;BME280;40161;39.768;2.722;2023-07-20T07:49:47;100954.03;;;29.38;81.48
54248;BME280;40161;39.768;2.722;2023-07-20T07:52:13;100933.38;;;29.31;81.15
54248;BME280;40161;39.768;2.722;2023-07-20T07:54:39;100958.50;;;29.44;79.96
54248;BME280;40161;39.768;2.722;2023-07-20T07:57:05;100959.81;;;29.49;79.40
54248;BME280;40161;39.768;2.722;2023-07-20T07:59:31;100959.44;;;29.56;79.38
54248;BME280;40161;39.768;2.722;2023-07-20T08:02:02;100950.97;;;29.56;79.21
54248;BME280;40161;39.768;2.722;2023-07-20T08:04:27;100928.34;;;29.56;78.83
54248;BME280;40161;39.768;2.722;2023-07-20T08:06:53;100914.97;;;29.56;78.47
54248;BME280;40161;39.768;2.722;2023-07-20T08:09:19;100931.25;;;29.62;78.24
54248;BME280;40161;39.768;2.722;2023-07-20T08:11:47;100928.22;;;29.65;78.08
54248;BME280;40161;39.768;2.722;2023-07-20T08:14:13;100917.41;;;29.64;76.92
54248;BME280;40161;39.768;2.722;2023-07-20T08:16:39;100939.59;;;29.71;77.00
54248;BME280;40161;39.768;2.722;2023-07-20T08:19:04;100908.81;;;29.58;76.63
54248;BME280;40161;39.768;2.722;2023-07-20T08:21:30;100920.16;;;29.78;76.89
54248;BME280;40161;39.768;2.722;2023-07-20T08:23:55;100919.94;;;29.62;75.96
54248;BME280;40161;39.768;2.722;2023-07-20T08:26:21;100951.56;;;29.80;75.80
54248;BME280;40161;39.768;2.722;2023-07-20T08:28:47;100952.13;;;29.85;75.55
54248;BME280;40161;39.768;2.722;2023-07-20T08:31:13;100951.56;;;29.80;75.45
54248;BME280;40161;39.768;2.722;2023-07-20T08:33:39;100973.59;;;29.97;75.62
54248;BME280;40161;39.768;2.722;2023-07-20T08:36:05;100987.75;;;29.97;74.71
54248;BME280;40161;39.768;2.722;2023-07-20T08:38:31;100979.56;;;29.99;73.57
54248;BME280;40161;39.768;2.722;2023-07-20T08:40:56;100992.41;;;30.00;75.98
54248;BME280;40161;39.768;2.722;2023-07-20T08:43:25;101004.88;;;30.08;78.52
54248;BME280;40161;39.768;2.722;2023-07-20T08:45:54;101003.09;;;30.11;79.54
54248;BME280;40161;39.768;2.722;2023-07-20T08:48:20;100974.53;;;29.88;79.77
54248;BME280;40161;39.768;2.722;2023-07-20T08:50:49;100999.91;;;30.03;80.58
54248;BME280;40161;39.768;2.722;2023-07-20T08:53:16;101000.47;;;30.07;80.78
54248;BME280;40161;39.768;2.722;2023-07-20T08:55:44;100981.88;;;30.00;79.92
54248;BME280;40161;39.768;2.722;2023-07-20T08:58:11;101002.41;;;30.16;79.00
54248;BME280;40161;39.768;2.722;2023-07-20T09:00:38;100983.44;;;30.01;80.09
54248;BME280;40161;39.768;2.722;2023-07-20T09:03:04;100978.78;;;29.98;79.90
54248;BME280;40161;39.768;2.722;2023-07-20T09:05:30;100994.34;;;30.09;80.82
54248;BME280;40161;39.768;2.722;2023-07-20T09:07:56;100986.19;;;29.96;81.17
54248;BME280;40161;39.768;2.722;2023-07-20T09:10:22;100984.66;;;29.95;80.41
54248;BME280;40161;39.768;2.722;2023-07-20T09:12:48;101005.88;;;30.05;80.73
54248;BME280;40161;39.768;2.722;2023-07-20T09:15:14;100991.78;;;29.90;81.55
54248;BME280;40161;39.768;2.722;2023-07-20T09:17:46;101015.34;;;30.02;80.50
54248;BME280;40161;39.768;2.722;2023-07-20T09:20:12;101006.13;;;30.07;80.84
54248;BME280;40161;39.768;2.722;2023-07-20T09:22:39;101005.56;;;30.03;80.95
54248;BME280;40161;39.768;2.722;2023-07-20T09:25:28;100991.63;;;29.99;82.13
54248;BME280;40161;39.768;2.722;2023-07-20T09:27:54;100984.22;;;30.02;82.63
54248;BME280;40161;39.768;2.722;2023-07-20T09:30:25;100961.50;;;29.96;81.95
54248;BME280;40161;39.768;2.722;2023-07-20T09:32:50;100959.03;;;30.04;81.49
54248;BME280;40161;39.768;2.722;2023-07-20T09:35:20;100962.91;;;30.07;81.26
54248;BME280;40161;39.768;2.722;2023-07-20T09:37:55;100962.66;;;30.25;81.64
54248;BME280;40161;39.768;2.722;2023-07-20T09:40:23;100954.97;;;30.31;80.26
54248;BME280;40161;39.768;2.722;2023-07-20T09:42:52;100945.47;;;30.29;80.06
54248;BME280;40161;39.768;2.722;2023-07-20T09:45:18;100955.75;;;30.32;79.74
54248;BME280;40161;39.768;2.722;2023-07-20T09:47:44;100957.09;;;30.36;78.58
54248;BME280;40161;39.768;2.722;2023-07-20T09:50:09;100939.06;;;30.34;78.09
54248;BME280;40161;39.768;2.722;2023-07-20T09:52:39;100942.84;;;30.51;77.55
54248;BME280;40161;39.768;2.722;2023-07-20T09:55:07;100925.63;;;30.55;77.55
54248;BME280;40161;39.768;2.722;2023-07-20T09:57:33;100919.47;;;30.56;77.66
54248;BME280;40161;39.768;2.722;2023-07-20T10:00:00;100933.06;;;30.78;75.66
54248;BME280;40161;39.768;2.722;2023-07-20T10:02:33;100913.75;;;30.77;74.79
54248;BME280;40161;39.768;2.722;2023-07-20T10:05:03;100896.63;;;30.65;74.17
54248;BME280;40161;39.768;2.722;2023-07-20T10:07:36;100911.47;;;30.81;74.62
54248;BME280;40161;39.768;2.722;2023-07-20T10:10:06;100910.94;;;30.82;73.64
54248;BME280;40161;39.768;2.722;2023-07-20T10:12:33;100911.53;;;30.92;73.98
54248;BME280;40161;39.768;2.722;2023-07-20T10:15:14;100907.69;;;30.95;72.95
54248;BME280;40161;39.768;2.722;2023-07-20T10:17:45;100920.41;;;31.05;73.32
54248;BME280;40161;39.768;2.722;2023-07-20T10:20:16;100919.09;;;31.06;72.09
54248;BME280;40161;39.768;2.722;2023-07-20T10:22:45;100941.53;;;31.04;71.99
54248;BME280;40161;39.768;2.722;2023-07-20T10:25:13;100949.19;;;30.98;71.98
54248;BME280;40161;39.768;2.722;2023-07-20T10:27:39;100964.91;;;30.99;72.88
54248;BME280;40161;39.768;2.722;2023-07-20T10:30:06;100957.94;;;30.94;73.37
54248;BME280;40161;39.768;2.722;2023-07-20T10:32:32;100971.31;;;30.94;73.46
54248;BME280;40161;39.768;2.722;2023-07-20T10:34:58;100982.66;;;30.94;73.27
54248;BME280;40161;39.768;2.722;2023-07-20T10:40:34;100972.13;;;31.00;72.15
54248;BME280;40161;39.768;2.722;2023-07-20T10:43:09;101002.72;;;31.22;72.20
54248;BME280;40161;39.768;2.722;2023-07-20T10:48:23;100991.09;;;30.88;72.98
54248;BME280;40161;39.768;2.722;2023-07-20T10:51:12;101006.56;;;30.87;72.77
54248;BME280;40161;39.768;2.722;2023-07-20T10:53:40;101008.13;;;30.68;72.91
54248;BME280;40161;39.768;2.722;2023-07-20T10:56:13;101033.00;;;30.58;73.01
54248;BME280;40161;39.768;2.722;2023-07-20T10:58:42;101033.94;;;30.49;73.72
54248;BME280;40161;39.768;2.722;2023-07-20T11:01:08;101037.38;;;30.59;73.60
54248;BME280;40161;39.768;2.722;2023-07-20T11:03:39;101034.91;;;30.67;73.25
54248;BME280;40161;39.768;2.722;2023-07-20T11:08:55;101027.63;;;30.60;73.53
54248;BME280;40161;39.768;2.722;2023-07-20T11:11:29;101048.59;;;30.48;73.78
54248;BME280;40161;39.768;2.722;2023-07-20T11:16:50;101034.19;;;30.25;75.31
54248;BME280;40161;39.768;2.722;2023-07-20T11:19:24;101046.91;;;30.36;75.56
54248;BME280;40161;39.768;2.722;2023-07-20T11:24:16;101032.69;;;30.30;75.04
54248;BME280;40161;39.768;2.722;2023-07-20T11:26:44;101027.53;;;30.29;74.04
54248;BME280;40161;39.768;2.722;2023-07-20T11:29:10;101010.59;;;30.14;74.44
54248;BME280;40161;39.768;2.722;2023-07-20T11:31:39;100992.72;;;30.22;75.33
54248;BME280;40161;39.768;2.722;2023-07-20T11:34:05;100983.06;;;30.35;74.98
54248;BME280;40161;39.768;2.722;2023-07-20T11:36:31;100967.75;;;30.47;74.51
54248;BME280;40161;39.768;2.722;2023-07-20T11:38:58;100964.19;;;30.52;73.50
54248;BME280;40161;39.768;2.722;2023-07-20T11:41:25;100957.91;;;30.63;73.25
54248;BME280;40161;39.768;2.722;2023-07-20T11:43:51;100957.50;;;30.76;73.67
54248;BME280;40161;39.768;2.722;2023-07-20T11:46:17;100945.00;;;30.62;73.53
54248;BME280;40161;39.768;2.722;2023-07-20T11:48:42;100985.88;;;30.81;72.86
54248;BME280;40161;39.768;2.722;2023-07-20T11:51:15;101018.03;;;30.78;73.11
54248;BME280;40161;39.768;2.722;2023-07-20T11:53:43;101040.59;;;30.72;73.34
54248;BME280;40161;39.768;2.722;2023-07-20T11:56:10;101045.00;;;30.73;73.04
54248;BME280;40161;39.768;2.722;2023-07-20T11:58:36;101034.47;;;30.74;72.25
54248;BME280;40161;39.768;2.722;2023-07-20T12:01:06;101019.59;;;30.79;71.87
54248;BME280;40161;39.768;2.722;2023-07-20T12:03:32;101020.66;;;30.82;72.11
54248;BME280;40161;39.768;2.722;2023-07-20T12:06:06;101019.19;;;30.92;71.91
54248;BME280;40161;39.768;2.722;2023-07-20T12:08:33;101018.69;;;30.93;72.13
54248;BME280;40161;39.768;2.722;2023-07-20T12:10:58;101001.44;;;30.91;73.25
54248;BME280;40161;39.768;2.722;2023-07-20T12:13:24;100990.09;;;30.91;73.14
54248;BME280;40161;39.768;2.722;2023-07-20T12:15:53;100945.28;;;30.64;73.27
54248;BME280;40161;39.768;2.722;2023-07-20T12:18:22;100959.53;;;30.75;73.81
54248;BME280;40161;39.768;2.722;2023-07-20T12:20:48;100937.88;;;30.72;74.29
54248;BME280;40161;39.768;2.722;2023-07-20T12:23:13;100907.19;;;30.65;73.41
54248;BME280;40161;39.768;2.722;2023-07-20T12:25:40;100873.44;;;30.61;72.86
54248;BME280;40161;39.768;2.722;2023-07-20T12:28:16;100869.97;;;30.78;73.14
54248;BME280;40161;39.768;2.722;2023-07-20T12:30:44;100851.97;;;30.81;72.46
54248;BME280;40161;39.768;2.722;2023-07-20T12:33:10;100823.38;;;30.79;72.56
54248;BME280;40161;39.768;2.722;2023-07-20T12:35:37;100801.81;;;30.87;72.26
54248;BME280;40161;39.768;2.722;2023-07-20T12:38:02;100787.84;;;30.83;72.80
54248;BME280;40161;39.768;2.722;2023-07-20T12:40:28;100740.47;;;30.78;73.83
54248;BME280;40161;39.768;2.722;2023-07-20T12:42:54;100705.63;;;30.72;72.30
54248;BME280;40161;39.768;2.722;2023-07-20T12:45:19;100665.53;;;30.79;68.46
54248;BME280;40161;39.768;2.722;2023-07-20T12:47:45;100699.31;;;30.88;66.91
54248;BME280;40161;39.768;2.722;2023-07-20T12:50:11;100741.81;;;30.88;68.43
54248;BME280;40161;39.768;2.722;2023-07-20T12:52:37;100741.81;;;30.88;68.81
54248;BME280;40161;39.768;2.722;2023-07-20T12:55:04;100724.28;;;30.84;68.47
54248;BME280;40161;39.768;2.722;2023-07-20T12:57:30;100652.16;;;30.85;69.05
54248;BME280;40161;39.768;2.722;2023-07-20T12:59:56;100577.25;;;30.92;68.73
54248;BME280;40161;39.768;2.722;2023-07-20T13:02:21;100582.94;;;31.03;65.20
54248;BME280;40161;39.768;2.722;2023-07-20T13:04:47;100567.25;;;31.08;61.16
54248;BME280;40161;39.768;2.722;2023-07-20T13:07:12;100556.16;;;31.27;60.41
54248;BME280;40161;39.768;2.722;2023-07-20T13:09:38;100551.78;;;31.31;57.37